Time;durP1;ratioP1;P1;durP2;ratioP2;P2;SDS_P1;SDS_P2;PMS_P1;PMS_P2;Temp;Humidity;BMP_temperature;BMP_pressure;BME280_temperature;BME280_humidity;BME280_pressure;Samples;Min_cycle;Max_cycle;Signal;HPM_P1;HPM_P2
2022/03/15 00:00:51;;;;;;;;;;;7.50;89.10;;;;;;5066062;28;19952;-77
2022/03/15 00:03:18;;;;;;;;;;;7.50;88.70;;;;;;5053503;28;20046;-75
2022/03/15 00:05:45;;;;;;;;;;;7.40;89.80;;;;;;5065467;28;20407;-78
2022/03/15 00:08:12;;;;;;;;;;;7.40;89.50;;;;;;5059332;28;20015;-78
2022/03/15 00:10:39;;;;;;;;;;;7.40;89.60;;;;;;5059573;28;19924;-75
2022/03/15 00:13:07;;;;;;;;;;;7.40;88.60;;;;;;5068984;28;19960;-76
2022/03/15 00:15:35;;;;;;;;;;;7.40;89.30;;;;;;5075183;28;19924;-77
2022/03/15 00:18:03;;;;;;;;;;;7.30;89.50;;;;;;5066241;28;19932;-77
2022/03/15 00:20:30;;;;;;;;;;;7.30;89.60;;;;;;5057146;28;20027;-78
2022/03/15 00:22:59;;;;;;;;;;;7.30;89.90;;;;;;5063558;28;19936;-78
2022/03/15 00:25:26;;;;;;;;;;;7.30;89.40;;;;;;5069749;28;19990;-77
2022/03/15 00:27:53;;;;;;;;;;;7.40;89.30;;;;;;5054321;28;19925;-77
2022/03/15 00:30:20;;;;;;;;;;;7.40;89.00;;;;;;5062017;28;20419;-78
2022/03/15 00:32:48;;;;;;;;;;;7.40;88.50;;;;;;5072417;28;19960;-77
2022/03/15 00:35:23;;;;;;;;;;;7.40;88.60;;;;;;5070705;28;19924;-78
2022/03/15 00:37:51;;;;;;;;;;;7.40;89.50;;;;;;5079920;28;19948;-77
2022/03/15 00:40:18;;;;;;;;;;;7.40;89.00;;;;;;5072600;28;20384;-75
2022/03/15 00:42:51;;;;;;;;;;;7.40;89.90;;;;;;5071453;28;21202;-77
2022/03/15 00:45:19;;;;;;;;;;;7.30;90.10;;;;;;5055752;28;19929;-77
2022/03/15 00:47:45;;;;;;;;;;;7.30;90.10;;;;;;5066022;28;19928;-78
2022/03/15 00:50:12;;;;;;;;;;;7.30;89.80;;;;;;5057133;28;19931;-78
2022/03/15 00:52:39;;;;;;;;;;;7.30;89.90;;;;;;5072256;28;20002;-78
2022/03/15 00:55:06;;;;;;;;;;;7.20;90.70;;;;;;5072084;28;20212;-77
2022/03/15 00:57:33;;;;;;;;;;;7.20;90.30;;;;;;5072763;28;19974;-77
2022/03/15 00:59:59;;;;;;;;;;;7.20;90.30;;;;;;5072751;28;19931;-77
2022/03/15 01:02:26;;;;;;;;;;;7.20;89.80;;;;;;5069971;28;19933;-78
2022/03/15 01:04:53;;;;;;;;;;;7.20;89.80;;;;;;5059115;28;19968;-78
2022/03/15 01:07:20;;;;;;;;;;;7.20;90.00;;;;;;5057382;28;19924;-77
2022/03/15 01:09:47;;;;;;;;;;;7.20;89.70;;;;;;5069291;28;20311;-77
2022/03/15 01:12:14;;;;;;;;;;;7.20;89.80;;;;;;5063191;28;19952;-77
2022/03/15 01:14:41;;;;;;;;;;;7.20;89.70;;;;;;5062472;28;20509;-77
2022/03/15 01:17:08;;;;;;;;;;;7.20;89.20;;;;;;5067939;28;19978;-78
2022/03/15 01:19:35;;;;;;;;;;;7.20;88.80;;;;;;5067418;28;19956;-76
2022/03/15 01:22:02;;;;;;;;;;;7.20;89.00;;;;;;5052488;28;19924;-77
2022/03/15 01:24:28;;;;;;;;;;;7.30;88.90;;;;;;5065234;28;19951;-78
2022/03/15 01:26:56;;;;;;;;;;;7.30;88.90;;;;;;5062733;28;20002;-74
2022/03/15 01:29:24;;;;;;;;;;;7.30;89.60;;;;;;5069046;28;19924;-78
2022/03/15 01:31:51;;;;;;;;;;;7.30;88.90;;;;;;5066954;28;19928;-75
2022/03/15 01:34:18;;;;;;;;;;;7.20;88.90;;;;;;5054652;28;19924;-74
2022/03/15 01:36:45;;;;;;;;;;;7.30;89.20;;;;;;5064864;28;20377;-77
2022/03/15 01:39:12;;;;;;;;;;;7.20;89.20;;;;;;5073054;28;19924;-77
2022/03/15 01:41:39;;;;;;;;;;;7.30;89.40;;;;;;5052375;28;20381;-78
2022/03/15 01:44:29;;;;;;;;;;;7.30;88.90;;;;;;5063780;28;20435;-78
2022/03/15 01:46:56;;;;;;;;;;;7.20;88.80;;;;;;5057697;28;19928;-77
2022/03/15 01:49:22;;;;;;;;;;;7.20;89.00;;;;;;5072613;28;20438;-75
2022/03/15 01:51:50;;;;;;;;;;;7.20;89.00;;;;;;5066308;28;19944;-75
2022/03/15 01:54:19;;;;;;;;;;;7.20;89.30;;;;;;5062454;28;20339;-75
2022/03/15 01:56:46;;;;;;;;;;;7.20;89.40;;;;;;5067008;28;20448;-78
2022/03/15 01:59:15;;;;;;;;;;;7.20;89.40;;;;;;5068613;28;19924;-76
2022/03/15 02:01:42;;;;;;;;;;;7.20;89.40;;;;;;5071440;28;19963;-78
2022/03/15 02:04:09;;;;;;;;;;;7.20;89.10;;;;;;5070772;28;19987;-78
2022/03/15 02:06:36;;;;;;;;;;;7.20;89.00;;;;;;5051451;28;20159;-76
2022/03/15 02:09:10;;;;;;;;;;;7.20;89.20;;;;;;5070878;28;19993;-77
2022/03/15 02:11:37;;;;;;;;;;;7.20;89.50;;;;;;5071948;28;19978;-80
2022/03/15 02:14:04;;;;;;;;;;;7.20;89.60;;;;;;5065244;28;19925;-78
2022/03/15 02:16:32;;;;;;;;;;;7.10;89.50;;;;;;5060821;28;19924;-75
2022/03/15 02:18:59;;;;;;;;;;;7.10;89.50;;;;;;5067789;28;19924;-77
2022/03/15 02:21:26;;;;;;;;;;;7.10;89.70;;;;;;5071006;28;20038;-78
2022/03/15 02:23:53;;;;;;;;;;;7.20;89.70;;;;;;5065472;28;19979;-78
2022/03/15 02:26:20;;;;;;;;;;;7.20;90.30;;;;;;5053487;28;19979;-75
2022/03/15 02:28:47;;;;;;;;;;;7.10;89.70;;;;;;5071086;28;19978;-78
2022/03/15 02:31:14;;;;;;;;;;;7.20;89.60;;;;;;5060541;28;20411;-78
2022/03/15 02:33:41;;;;;;;;;;;7.20;90.00;;;;;;5067067;28;19928;-77
2022/03/15 02:36:08;;;;;;;;;;;7.20;90.30;;;;;;5063975;28;19952;-78
2022/03/15 02:38:35;;;;;;;;;;;7.20;90.30;;;;;;5069447;28;19936;-77
2022/03/15 02:41:03;;;;;;;;;;;7.20;90.00;;;;;;5060704;28;19932;-76
2022/03/15 02:43:29;;;;;;;;;;;7.20;90.00;;;;;;5072063;28;19925;-78
2022/03/15 02:45:56;;;;;;;;;;;7.20;89.80;;;;;;5059636;28;19952;-76
2022/03/15 02:48:23;;;;;;;;;;;7.20;90.00;;;;;;5078924;28;19935;-77
2022/03/15 02:50:50;;;;;;;;;;;7.20;90.00;;;;;;5082392;28;19932;-77
2022/03/15 02:53:17;;;;;;;;;;;7.20;90.00;;;;;;5074297;28;19990;-78
2022/03/15 02:55:46;;;;;;;;;;;7.20;89.90;;;;;;5052435;28;20296;-78
2022/03/15 02:58:14;;;;;;;;;;;7.20;90.00;;;;;;5055929;28;20458;-78
2022/03/15 03:00:41;;;;;;;;;;;7.10;90.00;;;;;;5050509;28;19924;-78
2022/03/15 03:03:08;;;;;;;;;;;7.20;90.10;;;;;;5064657;28;19975;-77
2022/03/15 03:05:35;;;;;;;;;;;7.10;90.20;;;;;;5058339;28;19995;-78
2022/03/15 03:08:05;;;;;;;;;;;7.10;90.40;;;;;;5070560;28;19964;-78
2022/03/15 03:10:32;;;;;;;;;;;7.10;90.40;;;;;;5069439;28;19925;-78
2022/03/15 03:12:59;;;;;;;;;;;7.10;90.50;;;;;;5051072;28;20343;-78
2022/03/15 03:15:26;;;;;;;;;;;7.10;90.80;;;;;;5071741;28;19929;-78
2022/03/15 03:17:53;;;;;;;;;;;7.10;90.80;;;;;;5066574;28;19924;-77
2022/03/15 03:20:21;;;;;;;;;;;7.10;90.80;;;;;;5064194;28;19987;-78
2022/03/15 03:22:50;;;;;;;;;;;7.10;91.00;;;;;;5077628;28;20388;-79
2022/03/15 03:25:18;;;;;;;;;;;7.10;91.00;;;;;;5082894;28;20014;-77
2022/03/15 03:27:46;;;;;;;;;;;7.20;91.20;;;;;;5074058;28;19929;-76
2022/03/15 03:30:13;;;;;;;;;;;7.20;91.30;;;;;;5069473;28;19924;-78
2022/03/15 03:32:41;;;;;;;;;;;7.20;91.40;;;;;;5080334;28;20450;-77
2022/03/15 03:35:08;;;;;;;;;;;7.20;91.50;;;;;;5064958;28;20473;-77
2022/03/15 03:37:35;;;;;;;;;;;7.20;92.00;;;;;;5075754;28;19982;-79
2022/03/15 03:40:07;;;;;;;;;;;7.30;91.50;;;;;;5069597;28;19925;-77
2022/03/15 03:42:35;;;;;;;;;;;7.30;91.50;;;;;;5061400;28;20342;-77
2022/03/15 03:45:02;;;;;;;;;;;7.30;91.40;;;;;;5076163;28;19929;-79
2022/03/15 03:47:29;;;;;;;;;;;7.30;91.40;;;;;;5076313;28;19931;-76
2022/03/15 03:49:56;;;;;;;;;;;7.30;91.30;;;;;;5080025;28;19963;-78
2022/03/15 03:52:23;;;;;;;;;;;7.30;91.20;;;;;;5079321;28;19925;-78
2022/03/15 03:54:50;;;;;;;;;;;7.30;91.20;;;;;;5077370;28;19925;-79
2022/03/15 03:57:17;;;;;;;;;;;7.30;91.20;;;;;;5067387;28;20300;-76
2022/03/15 03:59:43;;;;;;;;;;;7.30;91.20;;;;;;5074964;28;19974;-78
2022/03/15 04:02:12;;;;;;;;;;;7.30;91.10;;;;;;5075623;28;19921;-78
2022/03/15 04:04:39;;;;;;;;;;;7.30;90.90;;;;;;5061174;28;20479;-78
2022/03/15 04:07:11;;;;;;;;;;;7.30;90.70;;;;;;5073041;28;19974;-78
2022/03/15 04:09:41;;;;;;;;;;;7.30;90.70;;;;;;5076040;28;19978;-77
2022/03/15 04:12:08;;;;;;;;;;;7.30;90.50;;;;;;5073214;28;20395;-78
2022/03/15 04:14:34;;;;;;;;;;;7.30;90.60;;;;;;5068451;28;19924;-78
2022/03/15 04:17:02;;;;;;;;;;;7.30;90.40;;;;;;5071892;28;19975;-78
2022/03/15 04:19:29;;;;;;;;;;;7.20;90.40;;;;;;5075593;28;19925;-78
2022/03/15 04:21:57;;;;;;;;;;;7.20;90.40;;;;;;5065258;28;20359;-77
2022/03/15 04:24:24;;;;;;;;;;;7.20;90.50;;;;;;5071335;28;20376;-77
2022/03/15 04:26:51;;;;;;;;;;;7.20;90.50;;;;;;5069738;28;19929;-77
2022/03/15 04:29:18;;;;;;;;;;;7.20;90.40;;;;;;5075240;28;19924;-78
2022/03/15 04:31:45;;;;;;;;;;;7.10;90.40;;;;;;5062974;28;20431;-77
2022/03/15 04:34:11;;;;;;;;;;;7.10;90.40;;;;;;5062572;28;19984;-78
2022/03/15 04:36:40;;;;;;;;;;;7.10;90.40;;;;;;5070656;28;20351;-78
2022/03/15 04:39:07;;;;;;;;;;;7.10;90.30;;;;;;5065402;28;19925;-76
2022/03/15 04:41:34;;;;;;;;;;;7.10;90.20;;;;;;5076766;28;19924;-77
2022/03/15 04:44:01;;;;;;;;;;;7.10;90.10;;;;;;5072602;28;19932;-78
2022/03/15 04:46:28;;;;;;;;;;;7.10;90.20;;;;;;5076016;28;19978;-79
2022/03/15 04:48:56;;;;;;;;;;;7.00;90.40;;;;;;5073695;28;19964;-77
2022/03/15 04:51:24;;;;;;;;;;;7.00;90.40;;;;;;5077049;28;19924;-78
2022/03/15 04:53:51;;;;;;;;;;;7.00;90.40;;;;;;5075750;28;19928;-77
2022/03/15 04:56:18;;;;;;;;;;;7.00;90.40;;;;;;5073808;28;20348;-78
2022/03/15 04:58:45;;;;;;;;;;;7.00;90.40;;;;;;5073821;28;20004;-75
2022/03/15 05:01:12;;;;;;;;;;;7.00;90.40;;;;;;5074989;28;19924;-76
2022/03/15 05:03:39;;;;;;;;;;;7.00;90.30;;;;;;5071426;28;19952;-75
2022/03/15 05:06:06;;;;;;;;;;;7.00;90.10;;;;;;5063358;28;20025;-78
2022/03/15 05:08:33;;;;;;;;;;;7.00;90.20;;;;;;5075755;28;19971;-78
2022/03/15 05:11:09;;;;;;;;;;;6.90;90.30;;;;;;5071180;28;20014;-77
2022/03/15 05:13:47;;;;;;;;;;;6.90;90.60;;;;;;5058484;28;19928;-78
2022/03/15 05:16:18;;;;;;;;;;;6.90;90.60;;;;;;5057714;28;20000;-78
2022/03/15 05:18:45;;;;;;;;;;;6.90;90.50;;;;;;5071213;28;19936;-78
2022/03/15 05:21:14;;;;;;;;;;;6.80;90.90;;;;;;5067058;28;19982;-78
2022/03/15 05:23:42;;;;;;;;;;;6.90;90.50;;;;;;5071051;28;20384;-78
2022/03/15 05:26:09;;;;;;;;;;;6.80;90.60;;;;;;5063623;28;19960;-78
2022/03/15 05:28:36;;;;;;;;;;;6.80;90.60;;;;;;5077942;28;19928;-78
2022/03/15 05:31:03;;;;;;;;;;;6.70;90.70;;;;;;5072898;28;19932;-78
2022/03/15 05:33:30;;;;;;;;;;;6.80;90.70;;;;;;5070809;28;20464;-75
2022/03/15 05:35:56;;;;;;;;;;;6.70;90.70;;;;;;5067635;28;19925;-78
2022/03/15 05:38:23;;;;;;;;;;;6.70;90.80;;;;;;5074942;28;19999;-75
2022/03/15 05:40:50;;;;;;;;;;;6.70;90.90;;;;;;5073731;28;19929;-78
2022/03/15 05:43:19;;;;;;;;;;;6.70;90.80;;;;;;5078400;28;19928;-77
2022/03/15 05:45:46;;;;;;;;;;;6.70;90.40;;;;;;5070689;28;20403;-77
2022/03/15 05:48:13;;;;;;;;;;;6.70;90.60;;;;;;5066684;28;19971;-75
2022/03/15 05:50:40;;;;;;;;;;;6.70;90.50;;;;;;5067302;28;20420;-78
2022/03/15 05:53:07;;;;;;;;;;;6.70;90.40;;;;;;5069906;28;19924;-76
2022/03/15 05:55:34;;;;;;;;;;;6.60;90.40;;;;;;5074884;28;20304;-77
2022/03/15 05:58:02;;;;;;;;;;;6.60;90.50;;;;;;5080088;28;19932;-78
2022/03/15 06:00:29;;;;;;;;;;;6.60;90.40;;;;;;5074477;28;19979;-75
2022/03/15 06:02:56;;;;;;;;;;;6.60;90.40;;;;;;5071720;28;19928;-76
2022/03/15 06:05:23;;;;;;;;;;;6.60;90.30;;;;;;5071035;28;19924;-76
2022/03/15 06:07:51;;;;;;;;;;;6.60;90.30;;;;;;5075859;28;19928;-78
2022/03/15 06:10:19;;;;;;;;;;;6.60;90.60;;;;;;5071230;28;19928;-78
2022/03/15 06:12:45;;;;;;;;;;;6.60;90.60;;;;;;5065062;28;20428;-76
2022/03/15 06:15:12;;;;;;;;;;;6.50;90.60;;;;;;5067436;28;19933;-76
2022/03/15 06:17:48;;;;;;;;;;;6.60;90.50;;;;;;5067841;28;19924;-78
2022/03/15 06:20:17;;;;;;;;;;;6.50;90.40;;;;;;5068902;28;20401;-78
2022/03/15 06:22:44;;;;;;;;;;;6.50;90.30;;;;;;5066403;28;19924;-76
2022/03/15 06:25:11;;;;;;;;;;;6.60;90.20;;;;;;5073852;28;19978;-78
2022/03/15 06:27:40;;;;;;;;;;;6.50;90.10;;;;;;5079119;28;19925;-78
2022/03/15 06:30:08;;;;;;;;;;;6.60;90.00;;;;;;5068549;28;19925;-77
2022/03/15 06:32:35;;;;;;;;;;;6.50;89.90;;;;;;5071853;28;19982;-78
2022/03/15 06:35:07;;;;;;;;;;;6.60;89.80;;;;;;5057239;28;19978;-78
2022/03/15 06:37:38;;;;;;;;;;;6.60;89.60;;;;;;5062033;28;19946;-78
2022/03/15 06:40:09;;;;;;;;;;;6.60;89.60;;;;;;5080026;28;19908;-76
2022/03/15 06:42:38;;;;;;;;;;;6.60;89.50;;;;;;5059282;28;19928;-76
2022/03/15 06:45:12;;;;;;;;;;;6.60;89.60;;;;;;5070848;28;19925;-75
2022/03/15 06:47:40;;;;;;;;;;;6.60;89.60;;;;;;5056952;28;19951;-78
2022/03/15 06:50:12;;;;;;;;;;;6.70;89.10;;;;;;5078641;28;19909;-76
2022/03/15 06:52:43;;;;;;;;;;;6.60;88.90;;;;;;5067659;28;19932;-75
2022/03/15 06:55:11;;;;;;;;;;;6.60;89.10;;;;;;5071912;28;19924;-78
2022/03/15 06:57:38;;;;;;;;;;;6.60;89.20;;;;;;5067837;28;19951;-75
2022/03/15 07:00:06;;;;;;;;;;;6.70;88.80;;;;;;5073841;28;20458;-77
2022/03/15 07:02:32;;;;;;;;;;;6.60;89.20;;;;;;5067752;28;19951;-77
2022/03/15 07:05:00;;;;;;;;;;;6.60;88.90;;;;;;5059583;28;20374;-76
2022/03/15 07:07:26;;;;;;;;;;;6.60;88.50;;;;;;5070429;28;19928;-76
2022/03/15 07:09:54;;;;;;;;;;;6.60;88.80;;;;;;5077037;28;19924;-77
2022/03/15 07:12:21;;;;;;;;;;;6.60;88.70;;;;;;5066576;28;19913;-78
2022/03/15 07:14:49;;;;;;;;;;;6.60;88.50;;;;;;5070835;28;19947;-75
2022/03/15 07:17:16;;;;;;;;;;;6.60;88.70;;;;;;5078007;28;19929;-77
2022/03/15 07:19:43;;;;;;;;;;;6.60;88.90;;;;;;5081619;28;19924;-76
2022/03/15 07:22:09;;;;;;;;;;;6.70;88.30;;;;;;5061641;28;19932;-75
2022/03/15 07:24:36;;;;;;;;;;;6.70;88.70;;;;;;5068600;28;20458;-75
2022/03/15 07:27:04;;;;;;;;;;;6.70;87.60;;;;;;5069770;28;20359;-77
2022/03/15 07:29:31;;;;;;;;;;;6.70;87.50;;;;;;5053348;28;19925;-77
2022/03/15 07:31:58;;;;;;;;;;;6.70;87.40;;;;;;5064807;28;19929;-77
2022/03/15 07:34:25;;;;;;;;;;;6.80;87.80;;;;;;5055012;28;19929;-75
2022/03/15 07:36:52;;;;;;;;;;;6.80;87.90;;;;;;5068741;28;20003;-77
2022/03/15 07:39:20;;;;;;;;;;;6.80;87.70;;;;;;5062293;28;19928;-77
2022/03/15 07:41:48;;;;;;;;;;;6.80;87.30;;;;;;5063742;28;20269;-75
2022/03/15 07:44:15;;;;;;;;;;;6.90;86.70;;;;;;5061940;28;20576;-77
2022/03/15 07:46:48;;;;;;;;;;;6.90;86.20;;;;;;5055129;28;19925;-75
2022/03/15 07:49:18;;;;;;;;;;;7.00;85.30;;;;;;5067355;28;20214;-77
2022/03/15 07:51:45;;;;;;;;;;;7.00;85.40;;;;;;5064348;28;19925;-75
2022/03/15 07:54:12;;;;;;;;;;;7.10;85.00;;;;;;5070039;28;19925;-76
2022/03/15 07:56:39;;;;;;;;;;;7.10;84.90;;;;;;5079049;28;19947;-76
2022/03/15 07:59:06;;;;;;;;;;;7.20;84.70;;;;;;5066357;28;19947;-75
2022/03/15 08:01:34;;;;;;;;;;;7.20;85.20;;;;;;5074619;28;19925;-76
2022/03/15 08:04:01;;;;;;;;;;;7.20;85.30;;;;;;5076536;28;19929;-77
2022/03/15 08:06:30;;;;;;;;;;;7.30;84.60;;;;;;5068682;28;19979;-74
2022/03/15 08:08:58;;;;;;;;;;;7.40;84.00;;;;;;5085734;28;20384;-77
2022/03/15 08:11:26;;;;;;;;;;;7.40;83.90;;;;;;5063122;28;19929;-77
2022/03/15 08:13:53;;;;;;;;;;;7.50;83.60;;;;;;5073832;28;19974;-76
2022/03/15 08:16:23;;;;;;;;;;;7.50;83.70;;;;;;5084771;28;20347;-77
2022/03/15 08:18:50;;;;;;;;;;;7.50;83.40;;;;;;5080974;28;20400;-77
2022/03/15 08:21:17;;;;;;;;;;;7.50;83.30;;;;;;5082671;28;19924;-75
2022/03/15 08:23:44;;;;;;;;;;;7.60;83.00;;;;;;5076256;28;20342;-77
2022/03/15 08:26:12;;;;;;;;;;;7.60;83.10;;;;;;5076564;28;19947;-75
2022/03/15 08:28:39;;;;;;;;;;;7.70;83.10;;;;;;5069364;28;19925;-78
2022/03/15 08:31:05;;;;;;;;;;;7.70;83.50;;;;;;5081041;28;19980;-76
2022/03/15 08:33:32;;;;;;;;;;;7.70;83.90;;;;;;5077016;28;19963;-75
2022/03/15 08:35:59;;;;;;;;;;;7.80;83.10;;;;;;5071995;28;20461;-77
2022/03/15 08:38:28;;;;;;;;;;;7.80;82.80;;;;;;5089513;28;19928;-78
2022/03/15 08:40:56;;;;;;;;;;;7.90;82.20;;;;;;5076519;28;20418;-78
2022/03/15 08:43:24;;;;;;;;;;;7.90;81.60;;;;;;5068333;28;19960;-78
2022/03/15 08:45:51;;;;;;;;;;;8.00;81.70;;;;;;5078633;28;20277;-78
2022/03/15 08:48:20;;;;;;;;;;;8.00;81.40;;;;;;5078293;28;19963;-76
2022/03/15 08:50:47;;;;;;;;;;;8.10;80.80;;;;;;5076066;28;19932;-75
2022/03/15 08:53:13;;;;;;;;;;;8.10;80.90;;;;;;5061231;28;19925;-78
2022/03/15 08:55:40;;;;;;;;;;;8.20;81.10;;;;;;5074826;28;19929;-78
2022/03/15 08:58:07;;;;;;;;;;;8.20;81.00;;;;;;5070339;28;19947;-78
2022/03/15 09:00:34;;;;;;;;;;;8.20;80.70;;;;;;5076340;28;20385;-78
2022/03/15 09:03:01;;;;;;;;;;;8.20;81.30;;;;;;5085261;28;19929;-77
2022/03/15 09:05:28;;;;;;;;;;;8.30;81.00;;;;;;5065114;28;20008;-76
2022/03/15 09:07:55;;;;;;;;;;;8.30;81.30;;;;;;5083699;28;19924;-78
2022/03/15 09:10:23;;;;;;;;;;;8.30;80.30;;;;;;5082892;28;19924;-78
2022/03/15 09:12:51;;;;;;;;;;;8.30;80.20;;;;;;5074496;28;19932;-75
2022/03/15 09:15:19;;;;;;;;;;;8.40;80.80;;;;;;5079269;28;19928;-77
2022/03/15 09:17:46;;;;;;;;;;;8.40;80.40;;;;;;5082935;28;19924;-78
2022/03/15 09:20:28;;;;;;;;;;;8.40;79.80;;;;;;5076004;28;20365;-78
2022/03/15 09:22:55;;;;;;;;;;;8.50;79.20;;;;;;5076416;28;19928;-75
2022/03/15 09:25:23;;;;;;;;;;;8.50;79.40;;;;;;5065279;28;20395;-77
2022/03/15 09:27:50;;;;;;;;;;;8.50;80.10;;;;;;5058332;28;19929;-78
2022/03/15 09:30:17;;;;;;;;;;;8.60;79.60;;;;;;5063584;28;20359;-78
2022/03/15 09:32:44;;;;;;;;;;;8.60;79.40;;;;;;5069546;28;20008;-77
2022/03/15 09:35:11;;;;;;;;;;;8.70;79.50;;;;;;5076778;28;19924;-78
2022/03/15 09:37:38;;;;;;;;;;;8.80;79.20;;;;;;5061478;28;19974;-75
2022/03/15 09:40:07;;;;;;;;;;;8.90;77.80;;;;;;5068571;28;20312;-77
2022/03/15 09:42:35;;;;;;;;;;;8.90;78.00;;;;;;5069073;28;20415;-78
2022/03/15 09:45:03;;;;;;;;;;;9.00;78.00;;;;;;5063532;28;19925;-78
2022/03/15 09:47:33;;;;;;;;;;;9.10;78.50;;;;;;5070395;28;20460;-77
2022/03/15 09:50:05;;;;;;;;;;;9.20;79.40;;;;;;5076608;28;20003;-77
2022/03/15 09:52:32;;;;;;;;;;;9.20;78.20;;;;;;5078075;28;19924;-76
2022/03/15 09:54:59;;;;;;;;;;;9.30;78.00;;;;;;5061416;28;20309;-77
2022/03/15 09:57:26;;;;;;;;;;;9.30;77.30;;;;;;5056313;28;19963;-75
2022/03/15 09:59:57;;;;;;;;;;;9.50;76.70;;;;;;5056302;28;19964;-77
2022/03/15 10:02:25;;;;;;;;;;;9.50;76.40;;;;;;5054238;28;19925;-77
2022/03/15 10:04:52;;;;;;;;;;;9.50;76.20;;;;;;5057694;28;20008;-77
2022/03/15 10:07:18;;;;;;;;;;;9.60;76.30;;;;;;5067374;28;19932;-77
2022/03/15 10:09:45;;;;;;;;;;;9.60;76.70;;;;;;5062095;28;19975;-77
2022/03/15 10:12:12;;;;;;;;;;;9.60;76.70;;;;;;5071816;28;19925;-77
2022/03/15 10:14:49;;;;;;;;;;;9.70;75.60;;;;;;5074692;28;19928;-77
2022/03/15 10:17:16;;;;;;;;;;;9.70;74.20;;;;;;5069920;28;20396;-78
2022/03/15 10:20:09;;;;;;;;;;;9.70;75.30;;;;;;5057228;28;19932;-77
2022/03/15 10:22:36;;;;;;;;;;;9.80;74.30;;;;;;5076100;28;19924;-77
2022/03/15 10:25:03;;;;;;;;;;;9.80;75.40;;;;;;5075411;28;19971;-77
2022/03/15 10:27:34;;;;;;;;;;;9.80;74.80;;;;;;5077397;28;19963;-77
2022/03/15 10:30:03;;;;;;;;;;;9.90;75.20;;;;;;5056082;28;19936;-78
2022/03/15 10:32:29;;;;;;;;;;;9.90;75.30;;;;;;5077012;28;19928;-78
2022/03/15 10:35:08;;;;;;;;;;;9.90;75.20;;;;;;5071995;28;19924;-77
2022/03/15 10:37:38;;;;;;;;;;;10.00;75.20;;;;;;5070946;28;19929;-77
2022/03/15 10:40:05;;;;;;;;;;;10.00;74.90;;;;;;5079362;28;19928;-75
2022/03/15 10:42:37;;;;;;;;;;;10.00;73.80;;;;;;5076037;28;19978;-75
2022/03/15 10:45:13;;;;;;;;;;;10.00;74.40;;;;;;5076278;28;20346;-77
2022/03/15 10:47:46;;;;;;;;;;;10.00;74.50;;;;;;5076814;28;19982;-77
2022/03/15 10:50:13;;;;;;;;;;;10.10;74.40;;;;;;5073933;28;19970;-78
2022/03/15 10:52:40;;;;;;;;;;;10.10;73.70;;;;;;5070141;28;20426;-77
2022/03/15 10:55:09;;;;;;;;;;;10.10;74.40;;;;;;5060956;28;19963;-76
2022/03/15 10:57:45;;;;;;;;;;;10.10;74.10;;;;;;5064480;28;19978;-75
2022/03/15 11:00:12;;;;;;;;;;;10.20;72.90;;;;;;5070420;28;19924;-75
2022/03/15 11:02:46;;;;;;;;;;;10.20;72.30;;;;;;5067601;28;19959;-77
2022/03/15 11:05:14;;;;;;;;;;;10.20;72.40;;;;;;5063616;28;19925;-78
2022/03/15 11:07:41;;;;;;;;;;;10.30;72.10;;;;;;5055525;28;19978;-76
2022/03/15 11:10:13;;;;;;;;;;;10.30;73.50;;;;;;5062533;28;19950;-78
2022/03/15 11:13:06;;;;;;;;;;;10.30;74.10;;;;;;5058055;28;20408;-78
2022/03/15 11:15:37;;;;;;;;;;;10.40;73.90;;;;;;5065950;28;19925;-77
2022/03/15 11:18:04;;;;;;;;;;;10.50;72.80;;;;;;5059873;28;19939;-77
2022/03/15 11:20:34;;;;;;;;;;;10.50;72.00;;;;;;5062527;28;19936;-77
2022/03/15 11:23:01;;;;;;;;;;;10.50;71.10;;;;;;5076406;28;19929;-78
2022/03/15 11:25:42;;;;;;;;;;;10.50;71.30;;;;;;5073951;28;19924;-78
2022/03/15 11:28:11;;;;;;;;;;;10.50;72.30;;;;;;5076471;28;19912;-75
2022/03/15 11:30:39;;;;;;;;;;;10.60;72.90;;;;;;5078261;28;19925;-77
2022/03/15 11:33:06;;;;;;;;;;;10.60;72.50;;;;;;5066242;28;19932;-78
2022/03/15 11:35:34;;;;;;;;;;;10.70;71.40;;;;;;5066493;28;19999;-78
2022/03/15 11:38:02;;;;;;;;;;;10.70;71.20;;;;;;5073271;28;19932;-78
2022/03/15 11:40:29;;;;;;;;;;;10.80;70.70;;;;;;5061093;28;20348;-77
2022/03/15 11:43:08;;;;;;;;;;;10.80;70.50;;;;;;5067200;28;19925;-76
2022/03/15 11:45:54;;;;;;;;;;;10.90;70.30;;;;;;5059968;28;19988;-78
2022/03/15 11:48:29;;;;;;;;;;;11.00;69.50;;;;;;5062501;28;19932;-77
2022/03/15 11:50:56;;;;;;;;;;;11.00;69.70;;;;;;5073775;28;19928;-76
2022/03/15 11:53:33;;;;;;;;;;;11.00;69.50;;;;;;5064518;28;19924;-76
2022/03/15 11:56:04;;;;;;;;;;;11.00;68.70;;;;;;5081778;28;20545;-75
2022/03/15 11:58:30;;;;;;;;;;;11.10;66.90;;;;;;5082460;28;19925;-78
2022/03/15 12:01:08;;;;;;;;;;;11.00;66.20;;;;;;5086050;28;19949;-76
2022/03/15 12:03:47;;;;;;;;;;;11.00;66.40;;;;;;5075104;28;20316;-78
2022/03/15 12:06:18;;;;;;;;;;;10.90;65.10;;;;;;5084646;28;19931;-78
2022/03/15 12:08:53;;;;;;;;;;;10.90;64.40;;;;;;5075131;28;19957;-76
2022/03/15 12:11:46;;;;;;;;;;;10.90;64.80;;;;;;5063259;28;19928;-76
2022/03/15 12:14:19;;;;;;;;;;;11.00;65.40;;;;;;5058663;28;19990;-78
2022/03/15 12:16:51;;;;;;;;;;;11.00;65.30;;;;;;5065991;28;19928;-78
2022/03/15 12:19:39;;;;;;;;;;;11.20;65.40;;;;;;5067019;28;20159;-79
2022/03/15 12:22:08;;;;;;;;;;;11.30;65.80;;;;;;5069297;28;20300;-78
2022/03/15 12:24:37;;;;;;;;;;;11.40;65.20;;;;;;5070812;28;19937;-75
2022/03/15 12:27:07;;;;;;;;;;;11.50;65.30;;;;;;5068166;28;19987;-78
2022/03/15 12:29:36;;;;;;;;;;;11.60;65.30;;;;;;5071583;28;19960;-78
2022/03/15 12:32:13;;;;;;;;;;;11.60;63.40;;;;;;5056135;28;20026;-77
2022/03/15 12:34:44;;;;;;;;;;;11.60;61.00;;;;;;5082635;28;19933;-76
2022/03/15 12:37:11;;;;;;;;;;;11.50;59.20;;;;;;5058055;28;19939;-75
2022/03/15 12:39:38;;;;;;;;;;;11.40;60.80;;;;;;5054150;28;19924;-75
2022/03/15 12:42:12;;;;;;;;;;;11.30;60.40;;;;;;5067943;28;19928;-75
2022/03/15 12:44:39;;;;;;;;;;;11.40;60.80;;;;;;5065004;28;19928;-79
2022/03/15 12:47:14;;;;;;;;;;;11.40;60.40;;;;;;5071368;28;19924;-79
2022/03/15 12:49:41;;;;;;;;;;;11.60;60.70;;;;;;5066201;28;19929;-76
2022/03/15 12:52:09;;;;;;;;;;;11.70;60.60;;;;;;5064338;28;20400;-76
2022/03/15 12:54:36;;;;;;;;;;;11.70;60.20;;;;;;5058238;28;19924;-75
2022/03/15 12:57:10;;;;;;;;;;;11.80;61.20;;;;;;5067580;28;19928;-77
2022/03/15 12:59:48;;;;;;;;;;;11.90;61.00;;;;;;5063012;28;19931;-76
2022/03/15 13:02:16;;;;;;;;;;;12.00;60.80;;;;;;5071097;28;20006;-79
2022/03/15 13:04:48;;;;;;;;;;;12.00;60.00;;;;;;5058220;28;20340;-76
2022/03/15 13:07:15;;;;;;;;;;;12.10;60.60;;;;;;5063953;28;19999;-79
2022/03/15 13:09:42;;;;;;;;;;;12.20;59.80;;;;;;5071133;28;19924;-76
2022/03/15 13:12:12;;;;;;;;;;;12.20;60.50;;;;;;5065889;28;19971;-79
2022/03/15 13:14:39;;;;;;;;;;;12.30;61.80;;;;;;5065037;28;19932;-76
2022/03/15 13:17:06;;;;;;;;;;;12.40;60.50;;;;;;5066864;28;19924;-78
2022/03/15 13:19:35;;;;;;;;;;;12.50;60.10;;;;;;5067355;28;20278;-76
2022/03/15 13:22:04;;;;;;;;;;;12.60;59.10;;;;;;5060966;28;20312;-75
2022/03/15 13:24:35;;;;;;;;;;;12.60;58.70;;;;;;5062461;28;19931;-79
2022/03/15 13:27:03;;;;;;;;;;;12.60;57.50;;;;;;5070352;28;19925;-78
2022/03/15 13:29:36;;;;;;;;;;;12.60;58.60;;;;;;5059988;28;19994;-78
2022/03/15 13:32:03;;;;;;;;;;;12.70;58.60;;;;;;5061693;28;19924;-79
2022/03/15 13:34:31;;;;;;;;;;;12.70;58.60;;;;;;5065910;28;19947;-75
2022/03/15 13:37:04;;;;;;;;;;;12.80;58.90;;;;;;5062787;28;19928;-79
2022/03/15 13:39:32;;;;;;;;;;;12.90;58.90;;;;;;5060783;28;20525;-79
2022/03/15 13:42:00;;;;;;;;;;;12.90;58.30;;;;;;5060466;28;19928;-79
2022/03/15 13:44:29;;;;;;;;;;;12.90;59.30;;;;;;5065567;28;19925;-79
2022/03/15 13:47:03;;;;;;;;;;;12.80;58.90;;;;;;5068217;28;19971;-76
2022/03/15 13:49:31;;;;;;;;;;;12.70;58.90;;;;;;5069183;28;19932;-77
2022/03/15 13:52:06;;;;;;;;;;;12.70;59.30;;;;;;5061303;28;19925;-76
2022/03/15 13:54:47;;;;;;;;;;;12.50;58.80;;;;;;5062596;28;19935;-78
2022/03/15 13:57:41;;;;;;;;;;;12.40;59.10;;;;;;5056581;28;19924;-79
2022/03/15 14:00:17;;;;;;;;;;;12.30;60.50;;;;;;5060002;28;19935;-79
2022/03/15 14:02:46;;;;;;;;;;;12.50;61.20;;;;;;5061784;28;20519;-79
2022/03/15 14:05:15;;;;;;;;;;;12.50;60.10;;;;;;5063372;28;19974;-79
2022/03/15 14:07:42;;;;;;;;;;;12.60;59.40;;;;;;5053529;28;19929;-76
2022/03/15 14:10:12;;;;;;;;;;;12.60;61.50;;;;;;5057688;28;19932;-78
2022/03/15 14:12:42;;;;;;;;;;;12.70;60.60;;;;;;5061036;28;20165;-79
2022/03/15 14:15:11;;;;;;;;;;;12.80;59.50;;;;;;5061106;28;19947;-75
2022/03/15 14:17:48;;;;;;;;;;;12.80;60.40;;;;;;5064166;28;19925;-75
2022/03/15 14:20:19;;;;;;;;;;;12.80;60.10;;;;;;5063140;28;20388;-76
2022/03/15 14:22:48;;;;;;;;;;;12.90;60.30;;;;;;5065623;28;20011;-76
2022/03/15 14:25:21;;;;;;;;;;;12.90;59.60;;;;;;5061650;28;19935;-75
2022/03/15 14:27:54;;;;;;;;;;;12.90;59.40;;;;;;5068517;28;19924;-78
2022/03/15 14:30:21;;;;;;;;;;;12.90;59.40;;;;;;5061519;28;19933;-77
2022/03/15 14:32:52;;;;;;;;;;;12.90;59.80;;;;;;5063761;28;19925;-79
2022/03/15 14:35:24;;;;;;;;;;;13.00;59.50;;;;;;5055929;28;20430;-79